createdAt,value
2018-11-25T00:03:31.239Z,76.3
2018-11-25T00:13:34.705Z,77.8
2018-11-25T00:23:38.175Z,78.8
2018-11-25T00:33:41.599Z,80.2
2018-11-25T00:43:45.033Z,82.4
2018-11-25T00:53:48.497Z,81.8
2018-11-25T01:03:51.944Z,81.3
2018-11-25T01:13:55.385Z,81
2018-11-25T01:23:58.848Z,80.9
2018-11-25T01:34:02.299Z,80.9
2018-11-25T01:44:05.761Z,80.6
2018-11-25T01:54:09.233Z,81.7
2018-11-25T02:04:12.701Z,82.5
2018-11-25T02:14:16.193Z,81.1
2018-11-25T02:24:19.642Z,81.9
2018-11-25T02:34:23.100Z,80.7
2018-11-25T02:44:26.544Z,80.6
2018-11-25T02:54:29.978Z,81.3
2018-11-25T03:04:33.466Z,80.9
2018-11-25T03:14:36.916Z,81.3
2018-11-25T03:24:40.367Z,80.7
2018-11-25T03:34:43.782Z,80.1
2018-11-25T03:44:47.233Z,80.4
2018-11-25T03:54:50.675Z,79.6
2018-11-25T04:04:54.095Z,79.4
2018-11-25T04:14:57.526Z,79.9
2018-11-25T04:25:00.999Z,79.9
2018-11-25T04:35:04.473Z,79.5
2018-11-25T04:45:07.929Z,79.1
2018-11-25T04:55:11.371Z,78.5
2018-11-25T05:05:14.845Z,77.9
2018-11-25T05:15:18.306Z,77.5
2018-11-25T05:25:21.800Z,77.4
2018-11-25T05:35:25.247Z,78.1
2018-11-25T05:45:28.680Z,78.2
2018-11-25T05:55:32.123Z,77
2018-11-25T06:05:35.614Z,76.7
2018-11-25T06:15:39.050Z,76.4
2018-11-25T06:25:42.499Z,76.1
2018-11-25T06:35:45.928Z,75.7
2018-11-25T06:45:49.399Z,75
2018-11-25T06:55:52.835Z,75.9
2018-11-25T07:05:56.270Z,76.1
2018-11-25T07:15:59.727Z,75.9
2018-11-25T07:26:03.177Z,76
2018-11-25T07:36:06.710Z,75.7
2018-11-25T07:46:10.167Z,76.1
2018-11-25T07:56:13.601Z,76
2018-11-25T08:06:17.023Z,77.7
2018-11-25T08:16:20.462Z,78.7
2018-11-25T08:26:23.921Z,78.4
2018-11-25T08:36:27.390Z,77.2
2018-11-25T08:46:30.854Z,77.5
2018-11-25T08:56:34.289Z,77.1
2018-11-25T09:06:37.714Z,77.4
2018-11-25T09:16:41.184Z,78.4
2018-11-25T09:36:52.831Z,78.3
2018-11-25T09:46:56.276Z,76.3
2018-11-25T09:56:59.731Z,76.3
2018-11-25T10:07:03.185Z,76.7
2018-11-25T10:17:06.664Z,75.1
2018-11-25T10:27:10.100Z,74.8
2018-11-25T10:37:13.528Z,78.1
2018-11-25T10:47:16.951Z,75.5
2018-11-25T10:57:20.396Z,72.9
2018-11-25T11:07:23.856Z,72.1
2018-11-25T11:17:27.293Z,71.1
2018-11-25T11:27:30.719Z,71.6
2018-11-25T11:37:34.190Z,71.8
2018-11-25T11:47:37.631Z,71.9
2018-11-25T11:57:41.078Z,72.2
2018-11-25T12:07:44.571Z,71.9
2018-11-25T12:17:48.011Z,73.1
2018-11-25T12:27:51.484Z,73.5
2018-11-25T12:37:54.948Z,73.7
2018-11-25T12:47:58.406Z,73.7
2018-11-25T12:58:01.852Z,72.5
2018-11-25T13:08:05.276Z,72.4
2018-11-25T13:18:08.736Z,72
2018-11-25T13:28:12.197Z,72.5
2018-11-25T13:38:15.654Z,72.5
2018-11-25T13:48:19.095Z,73.3
2018-11-25T13:58:22.528Z,73.2
2018-11-25T14:08:25.961Z,73.4
2018-11-25T14:18:29.418Z,73.5
2018-11-25T14:28:32.876Z,73.3
2018-11-25T14:38:36.329Z,74
2018-11-25T14:48:39.797Z,74.4
2018-11-25T14:58:43.223Z,74.4
2018-11-25T15:08:46.676Z,74.4
2018-11-25T15:18:50.122Z,74.5
2018-11-25T15:28:53.591Z,74.6
2018-11-25T15:38:57.022Z,74.4
2018-11-25T15:49:00.585Z,72.6
2018-11-25T15:59:04.033Z,73
2018-11-25T16:09:07.528Z,74.1
2018-11-25T16:19:11.027Z,72.4
2018-11-25T16:29:14.594Z,73.1
2018-11-25T16:39:18.043Z,71.6
2018-11-25T16:49:21.529Z,71
2018-11-25T16:59:24.960Z,71.2
2018-11-25T17:09:28.450Z,71.1
2018-11-25T17:19:31.904Z,71.9
2018-11-25T17:29:35.358Z,73.2
2018-11-25T17:39:38.868Z,72.4
2018-11-25T17:49:42.330Z,71
2018-11-25T17:59:45.751Z,71.2
2018-11-25T18:09:49.170Z,71.6
2018-11-25T18:19:52.634Z,70.9
2018-11-25T18:29:56.108Z,71.9
2018-11-25T18:39:59.566Z,71.4
2018-11-25T18:50:03.011Z,71.4
2018-11-25T19:00:06.448Z,70.6
2018-11-25T19:10:09.880Z,73.6
2018-11-25T19:20:13.347Z,73.2
2018-11-25T19:30:16.802Z,72.6
2018-11-25T19:40:20.256Z,71.9
2018-11-25T19:50:23.717Z,70.8
2018-11-25T20:00:27.223Z,71.1
2018-11-25T20:10:30.666Z,71
2018-11-25T20:20:34.103Z,70.5
2018-11-25T20:30:37.520Z,69.3
2018-11-25T20:40:40.982Z,68.6
2018-11-25T20:50:44.436Z,69.7
2018-11-25T21:00:47.907Z,70.3
2018-11-25T21:10:51.379Z,69.6
2018-11-25T21:20:54.808Z,69
2018-11-25T21:30:58.271Z,68.9
2018-11-25T21:41:01.752Z,68.5
2018-11-25T21:51:05.323Z,68.4
2018-11-25T22:01:08.817Z,68.6
2018-11-25T22:11:12.241Z,68.8
2018-11-25T22:21:15.668Z,69.2
2018-11-25T22:31:19.146Z,68.3
2018-11-25T22:41:22.601Z,69
2018-11-25T22:51:26.040Z,68.8
2018-11-25T23:01:29.514Z,69.6
2018-11-25T23:11:32.981Z,68.7
2018-11-25T23:21:36.422Z,70
2018-11-25T23:31:39.881Z,70.3
2018-11-25T23:41:43.329Z,69.8
2018-11-25T23:51:46.796Z,70.7
